Time;durP1;ratioP1;P1;durP2;ratioP2;P2;SDS_P1;SDS_P2;PMS_P1;PMS_P2;Temp;Humidity;BMP_temperature;BMP_pressure;BME280_temperature;BME280_humidity;BME280_pressure;Samples;Min_cycle;Max_cycle;Signal;HPM_P1;HPM_P2
2023/06/24 00:01:15;;;;;;;7.70;4.95;;;;;;;18.26;91.80;102141.91;5004544;28;20034;-74
2023/06/24 00:03:40;;;;;;;8.10;5.03;;;;;;;18.16;92.50;102139.53;5014432;28;20111;-74
2023/06/24 00:06:06;;;;;;;6.38;4.47;;;;;;;18.09;92.90;102135.94;5020529;28;20146;-74
2023/06/24 00:08:36;;;;;;;7.70;4.60;;;;;;;18.06;93.06;102141.53;5007773;28;20563;-75
2023/06/24 00:11:02;;;;;;;7.05;5.10;;;;;;;18.06;93.17;102145.00;5012657;28;20033;-74
2023/06/24 00:13:28;;;;;;;7.60;4.63;;;;;;;18.06;93.40;102146.78;5012088;28;20057;-74
2023/06/24 00:15:55;;;;;;;8.93;4.97;;;;;;;18.05;93.28;102143.34;5016011;28;20037;-75
2023/06/24 00:18:24;;;;;;;8.70;4.80;;;;;;;17.95;93.54;102141.94;5008546;28;20034;-74
2023/06/24 00:20:50;;;;;;;6.53;5.10;;;;;;;17.86;93.88;102147.22;5014007;28;20028;-74
2023/06/24 00:23:24;;;;;;;5.78;4.25;;;;;;;17.81;94.24;102143.44;5003862;28;20034;-75
2023/06/24 00:25:54;;;;;;;8.27;4.22;;;;;;;17.83;94.20;102146.72;5009810;28;20030;-75
2023/06/24 00:28:20;;;;;;;6.63;4.40;;;;;;;17.84;94.05;102137.88;5004056;28;20065;-74
2023/06/24 00:30:47;;;;;;;8.23;5.05;;;;;;;17.81;94.09;102135.59;5012024;28;20412;-76
2023/06/24 00:33:13;;;;;;;6.35;4.70;;;;;;;17.75;94.60;102134.47;5007295;28;20041;-75
2023/06/24 00:35:39;;;;;;;8.07;4.90;;;;;;;17.71;95.06;102135.78;5006436;28;20421;-74
2023/06/24 00:38:04;;;;;;;9.15;5.63;;;;;;;17.67;95.04;102137.13;5008819;28;20033;-75
2023/06/24 00:40:30;;;;;;;9.77;5.25;;;;;;;17.60;95.22;102131.75;4991781;28;20042;-75
2023/06/24 00:42:56;;;;;;;8.18;4.93;;;;;;;17.52;95.47;102134.41;5008730;28;20026;-75
2023/06/24 00:45:24;;;;;;;9.90;4.65;;;;;;;17.45;96.04;102133.44;5011977;28;20045;-75
2023/06/24 00:47:51;;;;;;;8.20;5.07;;;;;;;17.42;96.31;102139.84;5016509;28;20030;-75
2023/06/24 00:50:17;;;;;;;7.82;4.57;;;;;;;17.44;96.41;102134.41;5013161;28;20057;-75
2023/06/24 00:52:43;;;;;;;12.90;4.85;;;;;;;17.46;96.31;102143.75;4993927;28;20461;-77
2023/06/24 00:55:12;;;;;;;7.75;4.93;;;;;;;17.47;96.38;102139.31;5010264;28;20038;-75
2023/06/24 00:57:39;;;;;;;9.05;5.28;;;;;;;17.48;96.11;102144.41;5022764;28;20027;-74
2023/06/24 01:00:13;;;;;;;8.55;4.97;;;;;;;17.51;95.67;102145.88;4994860;28;20045;-75
2023/06/24 01:02:38;;;;;;;12.98;5.18;;;;;;;17.54;95.66;102147.31;5015872;28;20743;-75
2023/06/24 01:05:07;;;;;;;8.73;5.30;;;;;;;17.52;95.56;102140.44;5006620;28;20038;-75
2023/06/24 01:07:37;;;;;;;7.78;5.25;;;;;;;17.47;95.89;102145.38;4994417;28;20611;-75
2023/06/24 01:10:07;;;;;;;8.63;5.07;;;;;;;17.40;95.74;102147.03;5017298;28;20125;-75
2023/06/24 01:12:43;;;;;;;10.05;4.85;;;;;;;17.32;96.50;102137.41;4995065;28;20030;-74
2023/06/24 01:15:10;;;;;;;13.43;5.70;;;;;;;17.26;96.72;102140.69;5009318;28;20046;-74
2023/06/24 01:17:47;;;;;;;8.45;5.00;;;;;;;17.17;97.21;102135.66;5008291;28;20069;-75
2023/06/24 01:20:27;;;;;;;10.18;5.57;;;;;;;17.11;97.73;102126.66;5031046;28;20045;-74
2023/06/24 01:23:10;;;;;;;7.15;5.03;;;;;;;17.06;98.35;102134.19;5009678;28;20428;-74
2023/06/24 01:25:57;;;;;;;9.63;5.50;;;;;;;17.03;98.71;102124.06;5008128;28;20099;-75
2023/06/24 01:28:30;;;;;;;8.52;5.13;;;;;;;17.01;99.27;102129.47;5026511;28;20044;-75
2023/06/24 01:31:34;;;;;;;11.70;5.78;;;;;;;17.01;99.47;102132.06;5002309;28;20037;-75
2023/06/24 01:34:11;;;;;;;11.75;5.35;;;;;;;17.02;99.76;102130.25;5000131;28;20571;-76
2023/06/24 01:36:40;;;;;;;8.07;5.30;;;;;;;17.02;100.00;102131.06;5004448;28;20125;-74
2023/06/24 01:39:09;;;;;;;7.50;4.75;;;;;;;17.03;100.00;102129.28;4990531;28;20076;-75
2023/06/24 01:41:41;;;;;;;9.40;5.45;;;;;;;17.03;100.00;102124.88;4994595;28;20053;-75
2023/06/24 01:44:13;;;;;;;8.48;5.00;;;;;;;17.04;100.00;102125.66;4995126;28;20493;-74
2023/06/24 01:46:44;;;;;;;10.88;6.03;;;;;;;17.00;100.00;102125.19;4991556;28;20026;-75
2023/06/24 01:49:13;;;;;;;9.45;5.07;;;;;;;16.99;100.00;102126.19;5000785;28;20057;-75
2023/06/24 01:51:41;;;;;;;11.18;4.75;;;;;;;17.01;100.00;102120.75;5008111;28;20053;-76
2023/06/24 01:54:13;;;;;;;16.83;6.97;;;;;;;17.02;100.00;102122.41;5004548;28;20081;-74
2023/06/24 01:56:41;;;;;;;14.23;5.28;;;;;;;17.04;100.00;102112.56;5010774;28;20036;-76
2023/06/24 01:59:08;;;;;;;7.75;4.68;;;;;;;17.07;100.00;102107.00;4999383;28;20037;-75
2023/06/24 02:01:37;;;;;;;18.13;5.00;;;;;;;17.09;100.00;102108.47;5008788;28;20121;-75
2023/06/24 02:04:06;;;;;;;8.60;5.20;;;;;;;17.10;100.00;102102.25;5007706;28;20041;-75
2023/06/24 02:06:32;;;;;;;7.75;5.60;;;;;;;17.13;100.00;102101.91;5005496;28;20088;-74
2023/06/24 02:09:00;;;;;;;7.65;5.43;;;;;;;17.15;100.00;102101.72;5028666;28;20054;-74
2023/06/24 02:11:29;;;;;;;7.75;5.85;;;;;;;17.17;100.00;102105.00;5010370;28;20041;-75
2023/06/24 02:13:56;;;;;;;7.50;5.15;;;;;;;17.20;100.00;102104.69;5006991;28;20044;-76
2023/06/24 02:16:22;;;;;;;8.77;5.82;;;;;;;17.22;100.00;102100.09;4992050;28;20050;-77
2023/06/24 02:18:48;;;;;;;8.63;5.45;;;;;;;17.14;100.00;102097.50;5003627;28;20053;-75
2023/06/24 02:21:18;;;;;;;7.57;5.43;;;;;;;17.06;100.00;102106.16;5008837;28;20057;-75
2023/06/24 02:23:46;;;;;;;8.48;5.68;;;;;;;17.03;100.00;102105.72;4992293;28;20042;-75
2023/06/24 02:26:12;;;;;;;8.90;5.90;;;;;;;17.00;100.00;102106.03;5008329;28;20029;-76
2023/06/24 02:28:39;;;;;;;11.25;5.43;;;;;;;16.98;100.00;102110.63;4989609;28;20102;-75
2023/06/24 02:31:06;;;;;;;6.68;4.97;;;;;;;16.98;100.00;102103.56;5019489;28;20029;-75
2023/06/24 02:33:32;;;;;;;14.23;7.47;;;;;;;17.00;100.00;102101.59;5008056;28;20041;-75
2023/06/24 02:35:57;;;;;;;9.23;6.05;;;;;;;16.96;100.00;102105.53;5011597;28;20044;-75
2023/06/24 02:38:23;;;;;;;7.97;5.68;;;;;;;16.89;100.00;102113.25;5011212;28;20034;-76
2023/06/24 02:40:49;;;;;;;7.78;5.82;;;;;;;16.87;100.00;102107.34;5005642;28;20029;-75
2023/06/24 02:43:16;;;;;;;7.40;5.35;;;;;;;16.86;100.00;102102.31;4992173;28;20076;-75
2023/06/24 02:45:42;;;;;;;12.77;5.57;;;;;;;16.86;100.00;102108.34;5007035;28;20046;-75
2023/06/24 02:48:09;;;;;;;14.52;5.70;;;;;;;16.87;100.00;102106.53;5010434;28;20448;-75
2023/06/24 02:50:37;;;;;;;15.98;5.90;;;;;;;16.87;100.00;102106.53;4998853;28;20041;-74
2023/06/24 02:53:04;;;;;;;9.10;5.82;;;;;;;16.81;100.00;102110.59;5019468;28;20038;-76
2023/06/24 02:55:34;;;;;;;12.07;5.70;;;;;;;16.78;100.00;102121.41;5003781;28;20041;-75
2023/06/24 02:58:07;;;;;;;9.95;5.63;;;;;;;16.75;100.00;102111.28;5013220;28;20030;-75
2023/06/24 03:00:56;;;;;;;10.30;6.57;;;;;;;16.75;100.00;102103.41;5008695;28;20159;-76
2023/06/24 03:03:49;;;;;;;15.73;6.07;;;;;;;16.76;100.00;102110.28;5005325;28;20069;-75
2023/06/24 03:06:17;;;;;;;7.85;5.82;;;;;;;16.73;100.00;102115.88;5009239;28;20400;-75
2023/06/24 03:08:44;;;;;;;14.43;6.50;;;;;;;16.70;100.00;102117.00;4990921;28;20456;-75
2023/06/24 03:11:13;;;;;;;10.48;6.05;;;;;;;16.68;100.00;102126.81;5012351;28;20036;-75
2023/06/24 03:13:38;;;;;;;9.60;5.90;;;;;;;16.64;100.00;102119.47;5013869;28;20099;-76
2023/06/24 03:16:12;;;;;;;8.07;5.82;;;;;;;16.63;100.00;102129.13;4995022;28;20029;-75
2023/06/24 03:18:44;;;;;;;10.07;6.60;;;;;;;16.67;100.00;102130.44;5012229;28;20468;-75
2023/06/24 03:21:10;;;;;;;11.55;6.78;;;;;;;16.69;100.00;102122.41;4993455;28;20025;-76
2023/06/24 03:23:36;;;;;;;10.85;6.00;;;;;;;16.69;100.00;102125.84;5014309;28;20044;-75
2023/06/24 03:26:05;;;;;;;9.77;6.10;;;;;;;16.69;100.00;102123.22;5013769;28;20025;-76
2023/06/24 03:28:31;;;;;;;8.82;6.60;;;;;;;16.69;100.00;102125.03;4993418;28;20046;-76
2023/06/24 03:31:07;;;;;;;8.68;5.88;;;;;;;16.69;100.00;102138.94;4998911;28;20032;-76
2023/06/24 03:33:32;;;;;;;9.25;6.45;;;;;;;16.69;100.00;102135.50;5015386;28;20038;-75
2023/06/24 03:35:58;;;;;;;8.68;6.07;;;;;;;16.65;100.00;102131.56;5008998;28;20641;-75
2023/06/24 03:38:28;;;;;;;9.55;6.10;;;;;;;16.64;100.00;102132.56;4987104;28;20034;-76
2023/06/24 03:40:55;;;;;;;9.35;6.20;;;;;;;16.64;100.00;102130.75;4994122;28;20117;-75
2023/06/24 03:43:20;;;;;;;9.25;6.40;;;;;;;16.65;100.00;102127.16;5006959;28;20604;-76
2023/06/24 03:45:46;;;;;;;9.68;6.95;;;;;;;16.67;100.00;102133.06;4996130;28;20018;-76
2023/06/24 03:48:12;;;;;;;13.10;7.40;;;;;;;16.69;100.00;102130.28;5000892;28;20032;-75
2023/06/24 03:50:38;;;;;;;10.13;6.88;;;;;;;16.69;100.00;102127.66;4994264;28;20025;-76
2023/06/24 03:53:04;;;;;;;12.32;7.43;;;;;;;16.70;100.00;102137.13;4994724;28;20503;-75
2023/06/24 03:55:29;;;;;;;12.27;7.25;;;;;;;16.68;100.00;102132.06;4981908;28;20045;-76
2023/06/24 03:57:55;;;;;;;10.27;6.97;;;;;;;16.67;100.00;102140.91;5010484;28;20037;-76
2023/06/24 04:00:20;;;;;;;9.15;7.10;;;;;;;16.68;100.00;102145.16;4992994;28;20046;-76
2023/06/24 04:02:46;;;;;;;13.30;7.40;;;;;;;16.70;100.00;102147.59;4995525;28;20033;-76
2023/06/24 04:05:13;;;;;;;11.52;6.72;;;;;;;16.70;100.00;102143.19;4995903;28;20085;-75
2023/06/24 04:07:39;;;;;;;14.40;7.82;;;;;;;16.71;100.00;102147.44;5031290;28;20045;-76
2023/06/24 04:10:09;;;;;;;13.35;7.65;;;;;;;16.73;100.00;102148.09;5006783;28;20057;-76
2023/06/24 04:12:35;;;;;;;11.68;6.45;;;;;;;16.74;100.00;102149.75;4993864;28;20439;-75
2023/06/24 04:15:03;;;;;;;11.60;7.40;;;;;;;16.78;100.00;102152.03;5008238;28;20046;-78
2023/06/24 04:17:29;;;;;;;11.80;7.13;;;;;;;16.78;100.00;102160.69;5011931;28;20038;-74
2023/06/24 04:19:58;;;;;;;14.20;8.60;;;;;;;16.80;100.00;102160.53;5006997;28;20046;-77
2023/06/24 04:22:25;;;;;;;13.18;6.85;;;;;;;16.81;100.00;102155.13;5011484;28;20040;-76
2023/06/24 04:24:50;;;;;;;11.45;8.05;;;;;;;16.82;100.00;102153.31;5007011;28;20061;-75
2023/06/24 04:27:16;;;;;;;12.77;8.27;;;;;;;16.83;100.00;102155.81;5007148;28;20048;-76
2023/06/24 04:29:42;;;;;;;14.98;8.57;;;;;;;16.82;100.00;102148.09;4997302;28;20048;-75
2023/06/24 04:32:09;;;;;;;10.60;7.28;;;;;;;16.84;100.00;102159.25;4991796;28;20084;-76
2023/06/24 04:34:35;;;;;;;12.80;7.15;;;;;;;16.86;100.00;102150.25;5006310;28;20038;-76
2023/06/24 04:37:00;;;;;;;13.20;9.07;;;;;;;16.92;100.00;102154.03;5002941;28;20510;-76
2023/06/24 04:39:27;;;;;;;13.00;8.50;;;;;;;16.96;100.00;102149.28;5007401;28;20057;-75
2023/06/24 04:41:52;;;;;;;15.30;9.52;;;;;;;17.00;100.00;102146.16;5006450;28;20053;-77
2023/06/24 04:44:19;;;;;;;14.45;10.65;;;;;;;17.03;100.00;102153.69;5010481;28;20625;-78
2023/06/24 04:46:45;;;;;;;16.15;10.88;;;;;;;17.08;100.00;102154.00;4994564;28;21364;-76
2023/06/24 04:49:11;;;;;;;17.30;12.55;;;;;;;17.17;100.00;102154.78;5009103;28;20049;-76
2023/06/24 04:51:37;;;;;;;26.35;13.52;;;;;;;17.25;100.00;102153.97;5004840;28;20034;-75
2023/06/24 04:54:03;;;;;;;22.10;13.48;;;;;;;17.36;100.00;102158.84;5006688;28;20042;-75
2023/06/24 04:56:29;;;;;;;18.80;12.73;;;;;;;17.41;100.00;102150.50;5013353;28;20116;-75
2023/06/24 04:58:54;;;;;;;27.75;14.15;;;;;;;17.49;100.00;102153.09;5010836;28;20046;-76
2023/06/24 05:01:20;;;;;;;24.88;13.48;;;;;;;17.49;100.00;102147.84;4990427;28;20037;-78
2023/06/24 05:03:47;;;;;;;22.17;14.43;;;;;;;17.55;100.00;102148.97;4989115;28;20509;-77
2023/06/24 05:06:12;;;;;;;20.60;13.73;;;;;;;17.63;100.00;102143.69;5010584;28;20041;-75
2023/06/24 05:08:38;;;;;;;19.83;13.40;;;;;;;17.69;100.00;102150.88;5021398;28;20062;-76
2023/06/24 05:11:03;;;;;;;21.08;13.80;;;;;;;17.74;100.00;102148.56;5007951;28;20041;-76
2023/06/24 05:13:29;;;;;;;22.45;15.05;;;;;;;17.83;100.00;102144.91;5007572;28;20169;-77
2023/06/24 05:15:54;;;;;;;21.90;14.93;;;;;;;17.91;100.00;102141.44;4996164;28;20116;-75
2023/06/24 05:18:20;;;;;;;23.58;15.45;;;;;;;17.95;100.00;102144.56;5012044;28;20013;-75
2023/06/24 05:20:45;;;;;;;21.77;14.98;;;;;;;18.08;100.00;102143.03;4990527;28;20456;-77
2023/06/24 05:23:11;;;;;;;24.45;14.23;;;;;;;18.16;100.00;102146.56;5012034;28;20044;-76
2023/06/24 05:25:36;;;;;;;17.83;12.95;;;;;;;18.24;100.00;102146.53;4990706;28;20030;-78
2023/06/24 05:28:02;;;;;;;21.85;12.95;;;;;;;18.35;100.00;102148.75;4996370;28;20097;-76
2023/06/24 05:30:27;;;;;;;16.60;11.73;;;;;;;18.48;100.00;102148.16;4995731;28;20042;-77
2023/06/24 05:32:53;;;;;;;25.08;14.90;;;;;;;18.63;100.00;102145.59;5012174;28;20489;-76
2023/06/24 05:35:18;;;;;;;21.00;12.80;;;;;;;18.73;100.00;102148.78;5001680;28;20080;-78
2023/06/24 05:37:44;;;;;;;20.77;12.15;;;;;;;18.84;100.00;102143.13;5008311;28;20128;-79
2023/06/24 05:40:10;;;;;;;15.95;11.48;;;;;;;19.02;100.00;102147.22;5002111;28;20057;-77
2023/06/24 05:42:35;;;;;;;25.40;11.70;;;;;;;19.16;98.08;102154.31;5008171;28;20038;-78
2023/06/24 05:45:00;;;;;;;17.10;10.95;;;;;;;19.26;95.41;102152.22;4995140;28;20045;-76
2023/06/24 05:47:26;;;;;;;14.40;9.57;;;;;;;19.48;91.95;102156.75;5008829;28;20034;-77
2023/06/24 05:49:51;;;;;;;13.55;9.98;;;;;;;19.59;89.10;102158.94;5009545;28;20042;-77
2023/06/24 05:52:17;;;;;;;13.77;9.43;;;;;;;19.76;88.30;102156.94;4994682;28;20042;-78
2023/06/24 05:54:42;;;;;;;13.95;9.10;;;;;;;19.95;88.12;102156.38;5008350;28;20046;-76
2023/06/24 05:57:09;;;;;;;12.82;7.97;;;;;;;20.12;86.09;102166.69;5000405;28;20072;-77
2023/06/24 05:59:34;;;;;;;11.68;7.50;;;;;;;20.26;86.31;102165.81;5010918;28;20511;-78
2023/06/24 06:02:01;;;;;;;14.32;9.02;;;;;;;20.49;82.87;102164.81;5003735;28;20029;-78
2023/06/24 06:04:29;;;;;;;13.48;8.30;;;;;;;20.66;81.21;102171.47;5006439;28;20176;-78
2023/06/24 06:06:55;;;;;;;12.45;8.48;;;;;;;20.82;80.88;102166.94;5006941;28;20488;-78
2023/06/24 06:09:22;;;;;;;11.73;8.18;;;;;;;20.97;79.23;102170.31;4989569;28;20077;-77
2023/06/24 06:11:47;;;;;;;11.73;6.82;;;;;;;21.13;77.26;102172.63;5009386;28;20022;-77
2023/06/24 06:14:13;;;;;;;11.50;6.80;;;;;;;21.32;76.00;102165.03;4993981;28;20405;-78
2023/06/24 06:16:39;;;;;;;10.15;7.72;;;;;;;21.49;75.29;102165.56;5012409;28;20030;-78
2023/06/24 06:19:04;;;;;;;15.15;7.82;;;;;;;21.47;74.05;102168.38;5001150;28;20053;-78
2023/06/24 06:21:29;;;;;;;10.90;6.93;;;;;;;21.61;72.43;102168.47;5017971;28;20029;-76
2023/06/24 06:23:55;;;;;;;11.50;6.93;;;;;;;21.78;71.70;102177.69;5005445;28;20596;-78
2023/06/24 06:26:21;;;;;;;9.85;6.82;;;;;;;21.96;71.26;102177.94;4993493;28;20041;-77
2023/06/24 06:28:49;;;;;;;11.52;6.85;;;;;;;22.18;70.64;102175.16;5016669;28;20042;-80
2023/06/24 06:31:15;;;;;;;12.30;6.60;;;;;;;22.43;70.24;102179.88;4995641;28;20083;-77
2023/06/24 06:33:41;;;;;;;10.88;6.85;;;;;;;22.60;68.83;102175.00;4991668;28;20054;-77
2023/06/24 06:36:07;;;;;;;10.98;6.10;;;;;;;22.81;68.08;102177.47;5012423;28;20095;-79
2023/06/24 06:38:33;;;;;;;9.40;5.88;;;;;;;23.08;67.03;102178.28;4997298;28;20603;-78
2023/06/24 06:40:59;;;;;;;13.98;5.70;;;;;;;23.14;66.07;102184.56;5012496;28;20550;-78
2023/06/24 06:43:25;;;;;;;10.20;6.18;;;;;;;23.43;65.02;102167.41;5006591;28;20037;-77
2023/06/24 06:45:50;;;;;;;10.82;6.63;;;;;;;23.68;64.38;102177.28;5012570;28;20092;-76
2023/06/24 06:48:15;;;;;;;13.52;6.57;;;;;;;23.87;62.22;102180.91;5016342;28;20493;-75
2023/06/24 06:50:41;;;;;;;12.57;6.60;;;;;;;24.08;62.19;102177.13;5013750;28;20033;-78
2023/06/24 06:53:06;;;;;;;12.25;6.30;;;;;;;24.30;60.18;102177.59;5011984;28;20084;-78
2023/06/24 06:55:32;;;;;;;10.10;6.22;;;;;;;24.57;59.75;102180.88;5020898;28;20408;-79
2023/06/24 06:57:57;;;;;;;9.60;6.20;;;;;;;24.95;58.16;102184.41;4997600;28;20034;-75
2023/06/24 07:00:23;;;;;;;10.13;5.68;;;;;;;25.06;58.28;102184.50;5001969;28;20058;-78
2023/06/24 07:02:48;;;;;;;10.07;5.55;;;;;;;25.29;57.16;102177.75;4999034;28;20032;-75
2023/06/24 07:05:14;;;;;;;9.15;5.05;;;;;;;25.57;56.11;102187.03;5016314;28;20396;-76
2023/06/24 07:07:39;;;;;;;11.45;5.07;;;;;;;25.79;53.87;102190.84;5001588;28;20025;-78
2023/06/24 07:10:06;;;;;;;12.18;5.65;;;;;;;26.07;54.51;102193.97;5008871;28;20054;-76
2023/06/24 07:12:31;;;;;;;7.22;5.00;;;;;;;25.98;53.51;102194.31;5021788;28;20040;-77
2023/06/24 07:14:57;;;;;;;7.47;4.38;;;;;;;26.22;52.39;102192.53;5015131;28;20033;-78
2023/06/24 07:17:22;;;;;;;5.88;4.18;;;;;;;26.61;51.17;102194.81;4998555;28;20497;-78
2023/06/24 07:19:48;;;;;;;8.93;4.07;;;;;;;26.88;51.65;102192.53;5016649;28;20124;-81
2023/06/24 07:22:15;;;;;;;7.72;4.50;;;;;;;27.03;50.26;102184.06;5014532;28;20036;-74
2023/06/24 07:24:43;;;;;;;7.80;4.53;;;;;;;27.21;49.70;102188.41;5014200;28;20090;-79
2023/06/24 07:27:09;;;;;;;6.30;4.50;;;;;;;27.44;48.58;102189.44;4993152;28;20065;-80
2023/06/24 07:29:35;;;;;;;10.98;4.80;;;;;;;27.57;48.40;102192.63;5006505;28;20504;-79
2023/06/24 07:32:00;;;;;;;7.72;4.50;;;;;;;27.69;47.66;102189.13;5017309;28;20033;-80
2023/06/24 07:34:26;;;;;;;8.23;4.75;;;;;;;27.72;47.10;102193.97;4996703;28;20057;-78
2023/06/24 07:36:51;;;;;;;9.45;4.63;;;;;;;27.87;48.10;102198.78;5006579;28;20038;-78
2023/06/24 07:39:17;;;;;;;8.55;4.82;;;;;;;28.08;47.87;102197.31;5000070;28;20042;-79
2023/06/24 07:41:42;;;;;;;9.95;5.47;;;;;;;28.31;47.20;102194.53;5013829;28;20029;-80
2023/06/24 07:44:08;;;;;;;11.88;5.53;;;;;;;28.40;46.33;102191.44;5015073;28;20041;-76
2023/06/24 07:46:34;;;;;;;10.82;4.93;;;;;;;28.53;45.54;102183.94;5019681;28;20042;-77
2023/06/24 07:49:00;;;;;;;8.65;5.10;;;;;;;28.68;45.15;102187.91;5014404;28;20077;-76
2023/06/24 07:51:25;;;;;;;8.45;4.65;;;;;;;28.68;45.77;102191.38;5008244;28;20123;-77
2023/06/24 07:53:51;;;;;;;6.90;4.65;;;;;;;28.68;45.00;102194.03;5014452;28;20038;-80
2023/06/24 07:56:17;;;;;;;9.15;3.78;;;;;;;28.85;43.99;102179.88;4985113;28;20456;-77
2023/06/24 07:58:42;;;;;;;9.35;5.20;;;;;;;28.65;43.35;102178.53;4994086;28;20168;-76
2023/06/24 08:01:08;;;;;;;8.05;5.35;;;;;;;28.47;44.40;102192.91;4992970;28;20075;-78
2023/06/24 08:03:34;;;;;;;8.95;4.72;;;;;;;28.98;44.50;102187.53;5011128;28;20429;-77
2023/06/24 08:06:00;;;;;;;7.93;5.05;;;;;;;29.20;43.70;102189.44;4997633;28;20519;-80
2023/06/24 08:08:25;;;;;;;10.63;5.10;;;;;;;29.44;42.87;102189.97;5015743;28;22271;-78
2023/06/24 08:10:51;;;;;;;11.57;5.47;;;;;;;29.11;43.58;102184.50;4996978;28;20032;-77
2023/06/24 08:13:16;;;;;;;11.35;5.55;;;;;;;28.95;43.22;102190.69;4993289;28;20037;-74
2023/06/24 08:15:43;;;;;;;8.68;5.10;;;;;;;28.87;43.54;102191.91;4991394;28;20066;-77
2023/06/24 08:18:08;;;;;;;8.27;4.53;;;;;;;29.29;42.83;102188.75;5013048;28;20478;-77
2023/06/24 08:20:34;;;;;;;10.90;5.88;;;;;;;29.09;43.50;102188.47;4993305;28;20439;-76
2023/06/24 08:22:59;;;;;;;9.23;4.72;;;;;;;29.08;44.28;102192.19;5012367;28;20041;-77
2023/06/24 08:25:25;;;;;;;7.78;5.30;;;;;;;29.79;44.95;102188.78;4998462;28;20050;-74
2023/06/24 08:27:51;;;;;;;10.73;6.47;;;;;;;29.81;43.39;102192.81;5010116;28;20049;-73
2023/06/24 08:30:17;;;;;;;8.38;5.72;;;;;;;29.66;42.83;102184.63;5012542;28;20045;-75
2023/06/24 08:32:43;;;;;;;6.30;4.38;;;;;;;30.08;42.61;102179.44;4997752;28;20081;-77
2023/06/24 08:35:09;;;;;;;10.65;6.07;;;;;;;30.30;42.55;102170.50;5007417;28;20034;-74
2023/06/24 08:37:37;;;;;;;9.40;5.00;;;;;;;30.15;41.69;102167.72;5012526;28;20041;-76
2023/06/24 08:40:04;;;;;;;9.85;5.78;;;;;;;29.96;42.71;102176.13;5012419;28;20409;-78
2023/06/24 08:42:30;;;;;;;8.93;5.25;;;;;;;30.25;43.11;102167.78;5011685;28;20033;-76
2023/06/24 08:44:55;;;;;;;11.15;6.18;;;;;;;30.01;42.74;102164.69;5019251;28;20049;-78
2023/06/24 08:47:23;;;;;;;8.48;5.28;;;;;;;30.49;42.58;102165.59;5009136;28;20035;-77
2023/06/24 08:49:55;;;;;;;6.65;4.32;;;;;;;30.91;42.35;102167.47;5011044;28;20148;-81
2023/06/24 08:52:24;;;;;;;8.80;5.18;;;;;;;30.91;41.35;102166.66;5014368;28;20077;-78
2023/06/24 08:54:51;;;;;;;14.90;5.35;;;;;;;30.88;41.52;102167.16;5009769;28;20124;-75
2023/06/24 08:57:18;;;;;;;11.70;5.63;;;;;;;30.43;42.62;102167.41;5015418;28;20640;-77
2023/06/24 08:59:43;;;;;;;6.55;5.28;;;;;;;30.63;42.23;102164.06;5012736;28;20138;-79
2023/06/24 09:02:10;;;;;;;11.75;5.75;;;;;;;30.72;41.42;102158.22;5001251;28;20033;-75
2023/06/24 09:04:37;;;;;;;7.72;5.32;;;;;;;30.74;42.07;102156.09;5008107;28;20054;-79
2023/06/24 09:07:03;;;;;;;8.90;4.75;;;;;;;30.98;42.12;102154.63;4997387;28;20041;-76
2023/06/24 09:09:28;;;;;;;8.90;4.40;;;;;;;31.15;41.41;102157.09;5005967;28;20046;-74
2023/06/24 09:11:58;;;;;;;8.23;4.38;;;;;;;31.18;40.39;102159.28;5010336;28;20504;-76
2023/06/24 09:14:25;;;;;;;9.07;3.63;;;;;;;31.38;39.89;102157.72;5014779;28;20415;-73
2023/06/24 09:16:58;;;;;;;10.88;5.20;;;;;;;30.76;39.46;102159.31;5016729;28;20037;-80
2023/06/24 09:19:29;;;;;;;9.15;4.68;;;;;;;30.83;39.79;102162.56;5015858;28;20037;-76
2023/06/24 09:22:01;;;;;;;10.63;4.65;;;;;;;31.20;41.53;102153.66;5017577;28;20033;-78
2023/06/24 09:24:27;;;;;;;;;;;;;;;31.20;41.81;102159.81;4990593;28;20110;-73
2023/06/24 09:26:58;;;;;;;6.72;4.32;;;;;;;31.29;40.86;102146.72;4992298;28;19920;-79
2023/06/24 09:29:27;;;;;;;6.82;4.57;;;;;;;31.10;40.04;102143.72;5011777;28;20052;-75
2023/06/24 09:31:55;;;;;;;10.95;4.82;;;;;;;31.37;40.93;102148.88;5010072;28;20392;-74
2023/06/24 09:34:21;;;;;;;7.32;4.57;;;;;;;31.03;40.46;102146.63;4980024;28;20046;-76
2023/06/24 09:36:55;;;;;;;7.32;4.60;;;;;;;31.26;41.13;102136.53;5012105;28;20060;-76
2023/06/24 09:39:22;;;;;;;6.53;3.65;;;;;;;31.38;39.54;102137.09;5007356;28;20108;-77
2023/06/24 09:41:51;;;;;;;7.95;3.60;;;;;;;31.60;38.09;102134.22;4996677;28;20022;-76
2023/06/24 09:44:19;;;;;;;6.00;3.45;;;;;;;31.58;37.37;102124.84;5001663;28;20079;-77
2023/06/24 09:46:45;;;;;;;4.25;3.35;;;;;;;31.57;36.86;102121.34;5011559;28;20037;-78
2023/06/24 09:49:11;;;;;;;7.13;3.28;;;;;;;31.55;37.67;102123.50;4993590;28;20511;-77
2023/06/24 09:51:38;;;;;;;5.57;2.78;;;;;;;31.67;36.33;102120.56;4995296;28;20030;-79
2023/06/24 09:54:06;;;;;;;4.35;2.95;;;;;;;31.58;35.71;102119.47;5011707;28;20037;-81
2023/06/24 09:56:35;;;;;;;4.55;2.70;;;;;;;31.16;35.83;102120.44;4989392;28;20065;-78
2023/06/24 09:59:01;;;;;;;7.30;2.80;;;;;;;31.00;35.40;102114.22;5010407;28;20041;-75
2023/06/24 10:01:27;;;;;;;4.90;3.13;;;;;;;31.17;36.65;102109.44;5006257;28;20046;-78
2023/06/24 10:03:53;;;;;;;4.90;3.00;;;;;;;31.18;36.99;102112.94;4997909;28;20096;-78
2023/06/24 10:06:19;;;;;;;5.28;3.30;;;;;;;31.41;37.04;102101.72;5012736;28;20034;-80
2023/06/24 10:08:45;;;;;;;5.70;2.60;;;;;;;31.60;36.45;102112.75;5012717;28;20061;-79
2023/06/24 10:11:10;;;;;;;4.93;2.50;;;;;;;31.81;36.71;102102.84;4987015;28;20117;-72
2023/06/24 10:13:36;;;;;;;3.53;2.35;;;;;;;31.87;36.50;102103.66;5005707;28;20045;-74
2023/06/24 10:16:01;;;;;;;6.15;2.38;;;;;;;31.67;35.75;102103.69;5009733;28;20030;-76
2023/06/24 10:18:37;;;;;;;3.17;2.40;;;;;;;31.74;33.88;102101.50;4995609;28;20050;-77
2023/06/24 10:21:07;;;;;;;3.08;2.50;;;;;;;31.69;34.31;102105.00;4990939;28;20040;-79
2023/06/24 10:23:40;;;;;;;5.00;2.50;;;;;;;31.53;32.76;102095.34;5008070;28;20044;-80
2023/06/24 10:26:23;;;;;;;5.65;2.42;;;;;;;31.68;32.26;102090.00;4991510;28;20547;-79
2023/06/24 10:29:06;;;;;;;4.00;2.53;;;;;;;31.40;32.90;102086.75;5004637;28;20045;-77
2023/06/24 10:31:44;;;;;;;4.35;2.80;;;;;;;31.42;33.95;102087.28;5011585;28;20052;-76
2023/06/24 10:34:19;;;;;;;5.57;2.83;;;;;;;31.74;32.99;102082.75;5004857;28;20049;-75
2023/06/24 10:36:58;;;;;;;3.47;2.53;;;;;;;31.49;33.57;102087.03;5011505;28;20091;-76
2023/06/24 10:39:37;;;;;;;4.55;2.95;;;;;;;31.11;32.39;102085.59;5011344;28;20521;-77
2023/06/24 10:42:25;;;;;;;3.75;2.85;;;;;;;31.15;33.16;102090.16;5013019;28;20029;-75
2023/06/24 10:44:52;;;;;;;3.00;1.90;;;;;;;31.63;31.55;102066.69;4991551;28;20034;-78
2023/06/24 10:47:18;;;;;;;3.88;2.03;;;;;;;31.63;30.87;102073.94;5009275;28;20027;-78
2023/06/24 10:49:44;;;;;;;3.22;2.40;;;;;;;31.54;32.08;102068.28;5010393;28;20049;-76
2023/06/24 10:52:10;;;;;;;2.90;2.40;;;;;;;31.51;32.78;102060.75;5007589;28;20042;-76
2023/06/24 10:54:37;;;;;;;3.70;1.90;;;;;;;31.54;32.88;102062.94;5010994;28;20060;-77
2023/06/24 10:57:07;;;;;;;3.28;1.85;;;;;;;31.35;31.99;102061.81;5010233;28;20514;-78
2023/06/24 10:59:42;;;;;;;3.17;2.03;;;;;;;31.60;33.23;102063.72;5008923;28;20041;-76
2023/06/24 11:02:09;;;;;;;3.97;2.38;;;;;;;31.53;32.22;102055.16;5006215;28;20030;-73
2023/06/24 11:04:45;;;;;;;2.92;1.80;;;;;;;31.55;31.01;102053.00;5013565;28;20037;-81
2023/06/24 11:07:11;;;;;;;3.30;2.30;;;;;;;31.38;30.91;102051.38;5011324;28;20124;-76
2023/06/24 11:09:37;;;;;;;3.50;2.10;;;;;;;31.58;30.31;102055.94;5011316;28;20140;-74
2023/06/24 11:12:03;;;;;;;2.63;1.83;;;;;;;31.49;30.31;102051.41;5007707;28;20097;-75
2023/06/24 11:14:29;;;;;;;3.10;2.20;;;;;;;31.54;30.23;102046.03;5008451;28;20496;-78
2023/06/24 11:16:55;;;;;;;3.55;2.33;;;;;;;31.50;30.84;102047.66;5007646;28;20025;-78
2023/06/24 11:19:20;;;;;;;2.92;2.00;;;;;;;31.44;31.58;102041.47;5000941;28;20050;-75
2023/06/24 11:21:46;;;;;;;3.13;1.90;;;;;;;31.35;30.61;102051.09;4989383;28;20099;-75